sensor_id;sensor_type;location;lat;lon;timestamp;P1;durP1;ratioP1;P2;durP2;ratioP2
37973;SDS011;23796;51.458;7.000;2022-10-31T00:00:06;10.05;;;6.55;;
37973;SDS011;23796;51.458;7.000;2022-10-31T00:02:33;9.50;;;5.82;;
37973;SDS011;23796;51.458;7.000;2022-10-31T00:04:59;12.38;;;6.00;;
37973;SDS011;23796;51.458;7.000;2022-10-31T00:07:24;9.93;;;6.05;;
37973;SDS011;23796;51.458;7.000;2022-10-31T00:09:52;10.68;;;6.55;;
37973;SDS011;23796;51.458;7.000;2022-10-31T00:12:20;9.48;;;6.53;;
37973;SDS011;23796;51.458;7.000;2022-10-31T00:14:46;10.68;;;6.25;;
37973;SDS011;23796;51.458;7.000;2022-10-31T00:17:14;10.60;;;6.28;;
37973;SDS011;23796;51.458;7.000;2022-10-31T00:19:41;10.48;;;6.18;;
37973;SDS011;23796;51.458;7.000;2022-10-31T00:22:09;12.88;;;6.60;;
37973;SDS011;23796;51.458;7.000;2022-10-31T00:24:35;11.85;;;6.75;;
37973;SDS011;23796;51.458;7.000;2022-10-31T00:27:01;13.25;;;6.63;;
37973;SDS011;23796;51.458;7.000;2022-10-31T00:29:26;13.30;;;6.70;;
37973;SDS011;23796;51.458;7.000;2022-10-31T00:31:54;13.77;;;6.25;;
37973;SDS011;23796;51.458;7.000;2022-10-31T00:34:19;12.63;;;6.70;;
37973;SDS011;23796;51.458;7.000;2022-10-31T00:36:47;13.02;;;6.72;;
37973;SDS011;23796;51.458;7.000;2022-10-31T00:39:15;12.18;;;6.55;;
37973;SDS011;23796;51.458;7.000;2022-10-31T00:41:41;10.70;;;6.57;;
37973;SDS011;23796;51.458;7.000;2022-10-31T00:44:06;13.52;;;6.78;;
37973;SDS011;23796;51.458;7.000;2022-10-31T00:46:34;10.73;;;5.97;;
37973;SDS011;23796;51.458;7.000;2022-10-31T00:49:00;11.32;;;6.57;;
37973;SDS011;23796;51.458;7.000;2022-10-31T00:51:26;9.88;;;5.88;;
37973;SDS011;23796;51.458;7.000;2022-10-31T00:53:51;12.80;;;6.57;;
37973;SDS011;23796;51.458;7.000;2022-10-31T00:56:17;11.90;;;6.35;;
37973;SDS011;23796;51.458;7.000;2022-10-31T00:58:45;11.20;;;6.50;;
37973;SDS011;23796;51.458;7.000;2022-10-31T01:01:10;9.80;;;5.90;;
37973;SDS011;23796;51.458;7.000;2022-10-31T01:03:36;8.80;;;5.72;;
37973;SDS011;23796;51.458;7.000;2022-10-31T01:08:32;11.57;;;6.25;;
37973;SDS011;23796;51.458;7.000;2022-10-31T01:11:05;8.45;;;5.60;;
37973;SDS011;23796;51.458;7.000;2022-10-31T01:13:33;11.73;;;6.70;;
37973;SDS011;23796;51.458;7.000;2022-10-31T01:15:59;12.07;;;6.93;;
37973;SDS011;23796;51.458;7.000;2022-10-31T01:18:26;13.10;;;6.50;;
37973;SDS011;23796;51.458;7.000;2022-10-31T01:21:08;7.82;;;5.93;;
37973;SDS011;23796;51.458;7.000;2022-10-31T01:23:38;14.15;;;6.15;;
37973;SDS011;23796;51.458;7.000;2022-10-31T01:28:35;12.32;;;5.97;;
37973;SDS011;23796;51.458;7.000;2022-10-31T01:31:06;12.80;;;6.95;;
37973;SDS011;23796;51.458;7.000;2022-10-31T01:33:33;9.70;;;5.97;;
37973;SDS011;23796;51.458;7.000;2022-10-31T01:36:10;9.25;;;5.63;;
37973;SDS011;23796;51.458;7.000;2022-10-31T01:38:47;12.35;;;6.60;;
37973;SDS011;23796;51.458;7.000;2022-10-31T01:41:17;9.98;;;5.88;;
37973;SDS011;23796;51.458;7.000;2022-10-31T01:43:49;9.48;;;5.80;;
37973;SDS011;23796;51.458;7.000;2022-10-31T01:46:41;10.82;;;6.18;;
37973;SDS011;23796;51.458;7.000;2022-10-31T01:49:05;11.82;;;6.22;;
37973;SDS011;23796;51.458;7.000;2022-10-31T01:51:38;14.13;;;7.25;;
37973;SDS011;23796;51.458;7.000;2022-10-31T01:56:48;12.02;;;7.53;;
37973;SDS011;23796;51.458;7.000;2022-10-31T01:59:19;10.73;;;7.43;;
37973;SDS011;23796;51.458;7.000;2022-10-31T02:01:47;11.88;;;7.50;;
37973;SDS011;23796;51.458;7.000;2022-10-31T02:04:17;14.45;;;7.40;;
37973;SDS011;23796;51.458;7.000;2022-10-31T02:06:52;12.85;;;7.22;;
37973;SDS011;23796;51.458;7.000;2022-10-31T02:09:21;12.43;;;7.28;;
37973;SDS011;23796;51.458;7.000;2022-10-31T02:11:52;12.80;;;7.57;;
37973;SDS011;23796;51.458;7.000;2022-10-31T02:14:22;12.95;;;7.38;;
37973;SDS011;23796;51.458;7.000;2022-10-31T02:16:55;10.32;;;7.28;;
37973;SDS011;23796;51.458;7.000;2022-10-31T02:19:30;11.48;;;7.78;;
37973;SDS011;23796;51.458;7.000;2022-10-31T02:27:50;12.00;;;7.93;;
37973;SDS011;23796;51.458;7.000;2022-10-31T02:38:56;10.93;;;7.20;;
37973;SDS011;23796;51.458;7.000;2022-10-31T02:49:10;15.95;;;8.52;;
37973;SDS011;23796;51.458;7.000;2022-10-31T02:51:45;13.60;;;7.88;;
37973;SDS011;23796;51.458;7.000;2022-10-31T02:54:18;14.75;;;8.02;;
37973;SDS011;23796;51.458;7.000;2022-10-31T02:56:48;12.57;;;8.63;;
37973;SDS011;23796;51.458;7.000;2022-10-31T02:59:19;12.38;;;7.60;;
37973;SDS011;23796;51.458;7.000;2022-10-31T03:01:59;13.02;;;7.80;;
37973;SDS011;23796;51.458;7.000;2022-10-31T03:16:11;15.10;;;7.93;;
37973;SDS011;23796;51.458;7.000;2022-10-31T03:18:43;12.37;;;7.50;;
37973;SDS011;23796;51.458;7.000;2022-10-31T03:24:04;11.30;;;7.53;;
37973;SDS011;23796;51.458;7.000;2022-10-31T03:26:35;12.27;;;7.22;;
37973;SDS011;23796;51.458;7.000;2022-10-31T03:29:05;13.68;;;7.88;;
37973;SDS011;23796;51.458;7.000;2022-10-31T03:31:33;13.95;;;8.48;;
37973;SDS011;23796;51.458;7.000;2022-10-31T03:34:06;10.90;;;7.13;;
37973;SDS011;23796;51.458;7.000;2022-10-31T03:36:37;15.50;;;8.20;;
37973;SDS011;23796;51.458;7.000;2022-10-31T03:39:05;10.82;;;7.65;;
37973;SDS011;23796;51.458;7.000;2022-10-31T03:41:40;13.20;;;8.18;;
37973;SDS011;23796;51.458;7.000;2022-10-31T03:44:12;13.43;;;8.60;;
37973;SDS011;23796;51.458;7.000;2022-10-31T03:46:41;12.32;;;8.48;;
37973;SDS011;23796;51.458;7.000;2022-10-31T03:49:12;15.23;;;8.20;;
37973;SDS011;23796;51.458;7.000;2022-10-31T03:51:55;14.07;;;9.13;;
37973;SDS011;23796;51.458;7.000;2022-10-31T03:57:22;15.77;;;9.65;;
37973;SDS011;23796;51.458;7.000;2022-10-31T03:59:58;16.25;;;8.63;;
37973;SDS011;23796;51.458;7.000;2022-10-31T04:02:37;13.60;;;8.27;;
37973;SDS011;23796;51.458;7.000;2022-10-31T04:05:06;15.27;;;8.80;;
37973;SDS011;23796;51.458;7.000;2022-10-31T04:07:37;14.85;;;8.65;;
37973;SDS011;23796;51.458;7.000;2022-10-31T04:10:10;14.52;;;8.68;;
37973;SDS011;23796;51.458;7.000;2022-10-31T04:12:41;15.48;;;9.50;;
37973;SDS011;23796;51.458;7.000;2022-10-31T04:15:11;14.43;;;8.93;;
37973;SDS011;23796;51.458;7.000;2022-10-31T04:17:39;12.30;;;8.23;;
37973;SDS011;23796;51.458;7.000;2022-10-31T04:20:09;13.73;;;8.80;;
37973;SDS011;23796;51.458;7.000;2022-10-31T04:22:35;15.13;;;9.75;;
37973;SDS011;23796;51.458;7.000;2022-10-31T04:25:00;13.32;;;8.30;;
37973;SDS011;23796;51.458;7.000;2022-10-31T04:27:26;15.80;;;8.40;;
37973;SDS011;23796;51.458;7.000;2022-10-31T04:29:52;13.57;;;8.65;;
37973;SDS011;23796;51.458;7.000;2022-10-31T04:32:20;13.07;;;8.27;;
37973;SDS011;23796;51.458;7.000;2022-10-31T04:34:46;12.82;;;8.15;;
37973;SDS011;23796;51.458;7.000;2022-10-31T04:37:12;14.63;;;7.65;;
37973;SDS011;23796;51.458;7.000;2022-10-31T04:39:37;11.57;;;7.45;;
37973;SDS011;23796;51.458;7.000;2022-10-31T04:42:03;14.00;;;8.18;;
37973;SDS011;23796;51.458;7.000;2022-10-31T04:44:33;13.45;;;7.72;;
37973;SDS011;23796;51.458;7.000;2022-10-31T04:47:00;15.13;;;8.27;;
37973;SDS011;23796;51.458;7.000;2022-10-31T04:49:26;12.07;;;8.00;;
37973;SDS011;23796;51.458;7.000;2022-10-31T04:51:52;14.23;;;9.27;;
37973;SDS011;23796;51.458;7.000;2022-10-31T04:54:19;18.67;;;10.85;;
37973;SDS011;23796;51.458;7.000;2022-10-31T04:56:45;15.75;;;9.77;;
37973;SDS011;23796;51.458;7.000;2022-10-31T04:59:11;16.67;;;8.35;;
37973;SDS011;23796;51.458;7.000;2022-10-31T05:01:36;11.00;;;8.43;;
37973;SDS011;23796;51.458;7.000;2022-10-31T05:04:02;14.38;;;8.57;;
37973;SDS011;23796;51.458;7.000;2022-10-31T05:06:30;13.85;;;8.93;;
37973;SDS011;23796;51.458;7.000;2022-10-31T05:09:00;12.48;;;8.40;;
37973;SDS011;23796;51.458;7.000;2022-10-31T05:11:25;14.93;;;9.40;;
37973;SDS011;23796;51.458;7.000;2022-10-31T05:13:53;13.48;;;8.95;;
37973;SDS011;23796;51.458;7.000;2022-10-31T05:16:21;14.43;;;8.95;;
37973;SDS011;23796;51.458;7.000;2022-10-31T05:18:49;15.52;;;9.65;;
37973;SDS011;23796;51.458;7.000;2022-10-31T05:21:15;11.73;;;7.88;;
37973;SDS011;23796;51.458;7.000;2022-10-31T05:23:40;14.35;;;9.60;;
37973;SDS011;23796;51.458;7.000;2022-10-31T05:26:08;15.50;;;8.88;;
37973;SDS011;23796;51.458;7.000;2022-10-31T05:28:33;16.95;;;9.07;;
37973;SDS011;23796;51.458;7.000;2022-10-31T05:30:59;14.45;;;8.52;;
37973;SDS011;23796;51.458;7.000;2022-10-31T05:33:24;13.32;;;8.00;;
37973;SDS011;23796;51.458;7.000;2022-10-31T05:35:50;16.15;;;8.68;;
37973;SDS011;23796;51.458;7.000;2022-10-31T05:38:16;14.10;;;8.57;;
37973;SDS011;23796;51.458;7.000;2022-10-31T05:40:41;17.17;;;9.13;;
37973;SDS011;23796;51.458;7.000;2022-10-31T05:43:07;17.98;;;8.63;;
37973;SDS011;23796;51.458;7.000;2022-10-31T05:45:33;12.93;;;8.35;;
37973;SDS011;23796;51.458;7.000;2022-10-31T05:47:59;14.90;;;9.40;;
37973;SDS011;23796;51.458;7.000;2022-10-31T05:50:27;16.77;;;9.48;;
37973;SDS011;23796;51.458;7.000;2022-10-31T05:52:57;16.77;;;9.90;;
37973;SDS011;23796;51.458;7.000;2022-10-31T05:55:23;13.57;;;9.25;;
37973;SDS011;23796;51.458;7.000;2022-10-31T05:57:50;18.55;;;9.45;;
37973;SDS011;23796;51.458;7.000;2022-10-31T06:00:17;17.00;;;9.27;;
37973;SDS011;23796;51.458;7.000;2022-10-31T06:02:43;18.60;;;10.00;;
37973;SDS011;23796;51.458;7.000;2022-10-31T06:05:08;17.55;;;9.32;;
37973;SDS011;23796;51.458;7.000;2022-10-31T06:07:36;12.35;;;8.75;;
37973;SDS011;23796;51.458;7.000;2022-10-31T06:10:04;21.30;;;9.15;;
37973;SDS011;23796;51.458;7.000;2022-10-31T06:12:31;17.77;;;8.77;;
37973;SDS011;23796;51.458;7.000;2022-10-31T06:15:05;14.98;;;9.23;;
37973;SDS011;23796;51.458;7.000;2022-10-31T06:17:34;14.77;;;8.68;;
37973;SDS011;23796;51.458;7.000;2022-10-31T06:20:00;15.40;;;9.43;;
37973;SDS011;23796;51.458;7.000;2022-10-31T06:22:26;16.33;;;8.70;;
37973;SDS011;23796;51.458;7.000;2022-10-31T06:24:52;18.85;;;10.52;;
37973;SDS011;23796;51.458;7.000;2022-10-31T06:27:20;14.27;;;9.43;;
37973;SDS011;23796;51.458;7.000;2022-10-31T06:29:46;16.75;;;9.13;;
37973;SDS011;23796;51.458;7.000;2022-10-31T06:32:17;14.88;;;9.25;;
37973;SDS011;23796;51.458;7.000;2022-10-31T06:34:43;14.95;;;9.68;;
37973;SDS011;23796;51.458;7.000;2022-10-31T06:37:13;18.13;;;9.45;;
37973;SDS011;23796;51.458;7.000;2022-10-31T06:39:39;15.13;;;8.98;;
37973;SDS011;23796;51.458;7.000;2022-10-31T06:42:07;16.73;;;10.52;;
37973;SDS011;23796;51.458;7.000;2022-10-31T06:44:32;17.92;;;9.18;;
37973;SDS011;23796;51.458;7.000;2022-10-31T06:46:58;19.83;;;9.93;;
37973;SDS011;23796;51.458;7.000;2022-10-31T06:49:24;15.77;;;9.48;;
37973;SDS011;23796;51.458;7.000;2022-10-31T06:51:50;20.38;;;12.15;;
37973;SDS011;23796;51.458;7.000;2022-10-31T06:54:16;20.48;;;10.60;;
37973;SDS011;23796;51.458;7.000;2022-10-31T06:56:47;19.17;;;10.70;;
37973;SDS011;23796;51.458;7.000;2022-10-31T06:59:13;18.25;;;10.65;;
37973;SDS011;23796;51.458;7.000;2022-10-31T07:01:44;18.88;;;10.20;;
37973;SDS011;23796;51.458;7.000;2022-10-31T07:04:10;17.40;;;10.30;;
37973;SDS011;23796;51.458;7.000;2022-10-31T07:06:36;15.88;;;9.70;;
37973;SDS011;23796;51.458;7.000;2022-10-31T07:09:02;15.38;;;9.95;;
37973;SDS011;23796;51.458;7.000;2022-10-31T07:11:27;15.35;;;10.15;;
37973;SDS011;23796;51.458;7.000;2022-10-31T07:13:53;15.23;;;10.35;;
37973;SDS011;23796;51.458;7.000;2022-10-31T07:16:19;14.68;;;9.52;;
37973;SDS011;23796;51.458;7.000;2022-10-31T07:18:49;17.50;;;9.70;;
37973;SDS011;23796;51.458;7.000;2022-10-31T07:21:18;17.55;;;9.75;;
37973;SDS011;23796;51.458;7.000;2022-10-31T07:23:43;13.85;;;9.20;;
37973;SDS011;23796;51.458;7.000;2022-10-31T07:26:21;16.15;;;9.02;;
37973;SDS011;23796;51.458;7.000;2022-10-31T07:28:52;17.30;;;9.63;;
37973;SDS011;23796;51.458;7.000;2022-10-31T07:31:18;16.65;;;10.50;;
37973;SDS011;23796;51.458;7.000;2022-10-31T07:33:43;15.23;;;10.02;;
37973;SDS011;23796;51.458;7.000;2022-10-31T07:36:29;14.52;;;10.70;;
37973;SDS011;23796;51.458;7.000;2022-10-31T07:38:57;18.27;;;10.35;;
37973;SDS011;23796;51.458;7.000;2022-10-31T07:41:27;17.20;;;10.35;;
37973;SDS011;23796;51.458;7.000;2022-10-31T07:43:55;14.07;;;9.90;;
37973;SDS011;23796;51.458;7.000;2022-10-31T07:46:22;17.42;;;9.98;;
37973;SDS011;23796;51.458;7.000;2022-10-31T07:48:51;14.70;;;10.68;;
37973;SDS011;23796;51.458;7.000;2022-10-31T07:51:19;15.40;;;10.25;;
37973;SDS011;23796;51.458;7.000;2022-10-31T07:53:49;15.50;;;10.65;;
37973;SDS011;23796;51.458;7.000;2022-10-31T07:56:14;22.52;;;11.55;;
37973;SDS011;23796;51.458;7.000;2022-10-31T07:58:43;19.20;;;11.52;;
37973;SDS011;23796;51.458;7.000;2022-10-31T08:01:09;20.63;;;11.18;;
37973;SDS011;23796;51.458;7.000;2022-10-31T08:03:34;19.40;;;12.85;;
37973;SDS011;23796;51.458;7.000;2022-10-31T08:06:02;16.48;;;12.77;;
37973;SDS011;23796;51.458;7.000;2022-10-31T08:08:28;19.20;;;12.90;;
37973;SDS011;23796;51.458;7.000;2022-10-31T08:10:54;15.25;;;11.93;;
37973;SDS011;23796;51.458;7.000;2022-10-31T08:13:20;22.42;;;13.85;;
37973;SDS011;23796;51.458;7.000;2022-10-31T08:15:46;22.25;;;13.32;;
37973;SDS011;23796;51.458;7.000;2022-10-31T08:18:15;18.30;;;12.65;;
37973;SDS011;23796;51.458;7.000;2022-10-31T08:20:48;22.38;;;13.90;;
37973;SDS011;23796;51.458;7.000;2022-10-31T08:23:25;20.27;;;13.30;;
37973;SDS011;23796;51.458;7.000;2022-10-31T08:25:50;20.00;;;14.60;;
37973;SDS011;23796;51.458;7.000;2022-10-31T08:28:16;21.63;;;13.57;;
37973;SDS011;23796;51.458;7.000;2022-10-31T08:30:42;24.90;;;15.00;;
37973;SDS011;23796;51.458;7.000;2022-10-31T08:35:38;22.05;;;15.68;;
37973;SDS011;23796;51.458;7.000;2022-10-31T08:38:08;22.10;;;14.90;;
37973;SDS011;23796;51.458;7.000;2022-10-31T08:40:40;21.80;;;14.13;;
37973;SDS011;23796;51.458;7.000;2022-10-31T08:43:16;20.83;;;14.00;;
37973;SDS011;23796;51.458;7.000;2022-10-31T08:45:43;19.25;;;13.35;;
37973;SDS011;23796;51.458;7.000;2022-10-31T08:48:12;18.58;;;14.48;;
37973;SDS011;23796;51.458;7.000;2022-10-31T08:50:39;20.63;;;14.88;;
37973;SDS011;23796;51.458;7.000;2022-10-31T08:53:06;23.02;;;14.30;;
37973;SDS011;23796;51.458;7.000;2022-10-31T08:55:35;22.90;;;14.77;;
37973;SDS011;23796;51.458;7.000;2022-10-31T08:58:03;22.63;;;15.68;;
37973;SDS011;23796;51.458;7.000;2022-10-31T09:00:30;22.75;;;14.60;;
37973;SDS011;23796;51.458;7.000;2022-10-31T09:02:57;21.00;;;14.35;;
37973;SDS011;23796;51.458;7.000;2022-10-31T09:05:23;20.65;;;14.77;;
37973;SDS011;23796;51.458;7.000;2022-10-31T09:07:50;22.60;;;14.88;;
37973;SDS011;23796;51.458;7.000;2022-10-31T09:10:16;20.80;;;13.95;;
37973;SDS011;23796;51.458;7.000;2022-10-31T09:12:41;21.20;;;15.02;;
37973;SDS011;23796;51.458;7.000;2022-10-31T09:15:07;21.90;;;15.57;;
37973;SDS011;23796;51.458;7.000;2022-10-31T09:17:33;22.73;;;14.65;;
37973;SDS011;23796;51.458;7.000;2022-10-31T09:19:59;20.13;;;13.25;;
37973;SDS011;23796;51.458;7.000;2022-10-31T09:22:24;23.13;;;14.43;;
37973;SDS011;23796;51.458;7.000;2022-10-31T09:24:50;21.55;;;14.23;;
37973;SDS011;23796;51.458;7.000;2022-10-31T09:27:16;22.40;;;14.85;;
37973;SDS011;23796;51.458;7.000;2022-10-31T09:29:41;25.88;;;15.23;;
37973;SDS011;23796;51.458;7.000;2022-10-31T09:32:07;29.17;;;17.13;;
37973;SDS011;23796;51.458;7.000;2022-10-31T09:34:33;21.25;;;15.60;;
37973;SDS011;23796;51.458;7.000;2022-10-31T09:36:58;22.38;;;16.42;;
37973;SDS011;23796;51.458;7.000;2022-10-31T09:39:24;25.38;;;15.48;;
37973;SDS011;23796;51.458;7.000;2022-10-31T09:52:54;25.08;;;18.08;;
37973;SDS011;23796;51.458;7.000;2022-10-31T09:55:36;23.52;;;17.25;;
37973;SDS011;23796;51.458;7.000;2022-10-31T09:58:04;21.60;;;16.13;;
37973;SDS011;23796;51.458;7.000;2022-10-31T10:00:30;23.38;;;16.75;;
37973;SDS011;23796;51.458;7.000;2022-10-31T10:05:34;25.85;;;16.70;;
37973;SDS011;23796;51.458;7.000;2022-10-31T10:08:13;26.10;;;17.50;;
37973;SDS011;23796;51.458;7.000;2022-10-31T10:10:49;22.50;;;15.45;;
37973;SDS011;23796;51.458;7.000;2022-10-31T10:16:00;23.25;;;15.77;;
37973;SDS011;23796;51.458;7.000;2022-10-31T10:30:22;19.05;;;14.02;;
37973;SDS011;23796;51.458;7.000;2022-10-31T10:32:58;20.23;;;14.02;;
37973;SDS011;23796;51.458;7.000;2022-10-31T10:35:32;19.92;;;14.55;;
37973;SDS011;23796;51.458;7.000;2022-10-31T10:40:51;22.30;;;13.77;;
37973;SDS011;23796;51.458;7.000;2022-10-31T10:43:26;20.60;;;14.65;;
37973;SDS011;23796;51.458;7.000;2022-10-31T10:59:23;20.52;;;13.35;;
37973;SDS011;23796;51.458;7.000;2022-10-31T11:01:52;20.77;;;14.20;;
37973;SDS011;23796;51.458;7.000;2022-10-31T11:04:24;23.08;;;13.50;;
37973;SDS011;23796;51.458;7.000;2022-10-31T11:09:35;19.13;;;13.43;;
37973;SDS011;23796;51.458;7.000;2022-10-31T11:12:11;18.00;;;12.95;;
37973;SDS011;23796;51.458;7.000;2022-10-31T11:14:59;25.50;;;13.90;;
37973;SDS011;23796;51.458;7.000;2022-10-31T11:17:39;19.20;;;12.43;;
37973;SDS011;23796;51.458;7.000;2022-10-31T11:20:16;20.58;;;12.73;;
37973;SDS011;23796;51.458;7.000;2022-10-31T11:25:53;20.75;;;12.75;;
37973;SDS011;23796;51.458;7.000;2022-10-31T11:28:19;19.73;;;12.15;;
37973;SDS011;23796;51.458;7.000;2022-10-31T11:30:49;22.20;;;12.48;;
37973;SDS011;23796;51.458;7.000;2022-10-31T11:33:23;20.27;;;12.18;;
37973;SDS011;23796;51.458;7.000;2022-10-31T11:35:58;17.67;;;10.77;;
37973;SDS011;23796;51.458;7.000;2022-10-31T11:38:31;16.75;;;11.63;;
37973;SDS011;23796;51.458;7.000;2022-10-31T11:41:45;17.45;;;10.80;;
37973;SDS011;23796;51.458;7.000;2022-10-31T11:49:01;18.55;;;10.50;;
37973;SDS011;23796;51.458;7.000;2022-10-31T11:51:31;17.88;;;10.70;;
37973;SDS011;23796;51.458;7.000;2022-10-31T11:53:59;16.85;;;10.77;;
37973;SDS011;23796;51.458;7.000;2022-10-31T11:56:28;17.45;;;10.48;;
37973;SDS011;23796;51.458;7.000;2022-10-31T11:59:04;21.45;;;11.38;;
37973;SDS011;23796;51.458;7.000;2022-10-31T12:01:39;17.40;;;10.10;;
37973;SDS011;23796;51.458;7.000;2022-10-31T12:04:11;13.98;;;9.70;;
37973;SDS011;23796;51.458;7.000;2022-10-31T12:06:41;14.73;;;8.90;;
37973;SDS011;23796;51.458;7.000;2022-10-31T12:12:43;16.55;;;8.50;;
37973;SDS011;23796;51.458;7.000;2022-10-31T12:14:50;15.02;;;8.88;;
37973;SDS011;23796;51.458;7.000;2022-10-31T12:17:42;16.33;;;7.55;;
37973;SDS011;23796;51.458;7.000;2022-10-31T12:23:08;15.95;;;7.72;;
37973;SDS011;23796;51.458;7.000;2022-10-31T12:30:56;13.70;;;7.53;;
37973;SDS011;23796;51.458;7.000;2022-10-31T12:33:43;12.55;;;7.53;;
37973;SDS011;23796;51.458;7.000;2022-10-31T12:36:20;11.07;;;6.97;;
37973;SDS011;23796;51.458;7.000;2022-10-31T13:00:55;14.38;;;6.70;;
37973;SDS011;23796;51.458;7.000;2022-10-31T13:03:44;10.65;;;6.03;;
37973;SDS011;23796;51.458;7.000;2022-10-31T13:06:33;9.98;;;6.05;;
37973;SDS011;23796;51.458;7.000;2022-10-31T13:09:06;12.25;;;6.00;;
37973;SDS011;23796;51.458;7.000;2022-10-31T13:11:37;12.85;;;6.32;;
37973;SDS011;23796;51.458;7.000;2022-10-31T13:14:07;9.18;;;5.90;;
37973;SDS011;23796;51.458;7.000;2022-10-31T13:16:44;11.98;;;5.50;;
37973;SDS011;23796;51.458;7.000;2022-10-31T13:19:25;11.05;;;6.25;;
37973;SDS011;23796;51.458;7.000;2022-10-31T13:24:35;9.50;;;4.68;;
37973;SDS011;23796;51.458;7.000;2022-10-31T13:27:11;11.30;;;5.20;;
37973;SDS011;23796;51.458;7.000;2022-10-31T13:32:23;10.05;;;4.97;;
37973;SDS011;23796;51.458;7.000;2022-10-31T13:34:54;12.07;;;4.65;;
37973;SDS011;23796;51.458;7.000;2022-10-31T13:37:36;11.07;;;4.85;;
37973;SDS011;23796;51.458;7.000;2022-10-31T13:40:30;10.13;;;4.45;;
37973;SDS011;23796;51.458;7.000;2022-10-31T13:45:53;10.68;;;4.15;;
37973;SDS011;23796;51.458;7.000;2022-10-31T13:48:36;7.75;;;3.88;;
37973;SDS011;23796;51.458;7.000;2022-10-31T13:51:05;7.80;;;3.90;;
37973;SDS011;23796;51.458;7.000;2022-10-31T13:53:38;10.77;;;4.28;;
37973;SDS011;23796;51.458;7.000;2022-10-31T13:58:34;6.72;;;3.47;;
37973;SDS011;23796;51.458;7.000;2022-10-31T14:03:38;8.15;;;3.78;;
37973;SDS011;23796;51.458;7.000;2022-10-31T14:06:06;7.82;;;3.30;;
37973;SDS011;23796;51.458;7.000;2022-10-31T14:08:34;12.55;;;3.72;;
37973;SDS011;23796;51.458;7.000;2022-10-31T14:11:02;8.50;;;3.75;;
37973;SDS011;23796;51.458;7.000;2022-10-31T14:16:06;9.73;;;3.05;;
37973;SDS011;23796;51.458;7.000;2022-10-31T14:18:44;8.15;;;3.03;;
37973;SDS011;23796;51.458;7.000;2022-10-31T14:21:36;8.48;;;3.58;;
37973;SDS011;23796;51.458;7.000;2022-10-31T14:24:13;9.50;;;3.10;;
37973;SDS011;23796;51.458;7.000;2022-10-31T14:26:51;7.93;;;3.38;;
37973;SDS011;23796;51.458;7.000;2022-10-31T14:45:36;10.95;;;4.53;;
37973;SDS011;23796;51.458;7.000;2022-10-31T14:51:12;13.52;;;3.92;;
37973;SDS011;23796;51.458;7.000;2022-10-31T14:53:50;10.77;;;2.85;;
37973;SDS011;23796;51.458;7.000;2022-10-31T14:56:42;6.68;;;3.35;;
37973;SDS011;23796;51.458;7.000;2022-10-31T14:59:13;10.02;;;4.40;;
37973;SDS011;23796;51.458;7.000;2022-10-31T15:01:49;11.70;;;4.32;;
37973;SDS011;23796;51.458;7.000;2022-10-31T15:04:26;13.57;;;3.80;;
37973;SDS011;23796;51.458;7.000;2022-10-31T15:09:27;9.32;;;3.10;;
37973;SDS011;23796;51.458;7.000;2022-10-31T15:11:55;12.20;;;4.05;;
37973;SDS011;23796;51.458;7.000;2022-10-31T15:14:26;8.20;;;3.80;;
37973;SDS011;23796;51.458;7.000;2022-10-31T15:16:52;10.32;;;4.00;;
37973;SDS011;23796;51.458;7.000;2022-10-31T15:19:26;11.02;;;4.65;;
37973;SDS011;23796;51.458;7.000;2022-10-31T15:21:54;10.38;;;3.47;;
37973;SDS011;23796;51.458;7.000;2022-10-31T15:24:23;10.55;;;3.30;;
37973;SDS011;23796;51.458;7.000;2022-10-31T15:26:52;7.22;;;2.90;;
37973;SDS011;23796;51.458;7.000;2022-10-31T15:29:20;9.07;;;3.30;;
37973;SDS011;23796;51.458;7.000;2022-10-31T15:31:51;6.45;;;2.90;;
37973;SDS011;23796;51.458;7.000;2022-10-31T15:34:41;8.48;;;3.47;;
37973;SDS011;23796;51.458;7.000;2022-10-31T15:37:18;10.30;;;3.15;;
37973;SDS011;23796;51.458;7.000;2022-10-31T15:39:46;7.82;;;3.65;;
37973;SDS011;23796;51.458;7.000;2022-10-31T15:42:27;8.73;;;3.75;;
37973;SDS011;23796;51.458;7.000;2022-10-31T15:45:12;10.15;;;3.53;;
37973;SDS011;23796;51.458;7.000;2022-10-31T15:47:47;10.27;;;3.80;;
37973;SDS011;23796;51.458;7.000;2022-10-31T15:52:54;11.73;;;3.25;;
37973;SDS011;23796;51.458;7.000;2022-10-31T15:55:24;7.50;;;3.58;;
37973;SDS011;23796;51.458;7.000;2022-10-31T15:57:54;10.35;;;3.47;;
37973;SDS011;23796;51.458;7.000;2022-10-31T16:00:27;7.30;;;3.35;;
37973;SDS011;23796;51.458;7.000;2022-10-31T16:05:43;9.75;;;3.45;;
37973;SDS011;23796;51.458;7.000;2022-10-31T16:10:53;9.77;;;3.38;;
37973;SDS011;23796;51.458;7.000;2022-10-31T16:13:29;13.43;;;3.67;;
37973;SDS011;23796;51.458;7.000;2022-10-31T16:16:11;8.00;;;3.42;;
37973;SDS011;23796;51.458;7.000;2022-10-31T16:18:42;10.18;;;3.42;;
37973;SDS011;23796;51.458;7.000;2022-10-31T16:21:08;9.07;;;3.30;;
37973;SDS011;23796;51.458;7.000;2022-10-31T16:23:35;11.13;;;2.90;;
37973;SDS011;23796;51.458;7.000;2022-10-31T16:26:06;8.57;;;3.50;;
37973;SDS011;23796;51.458;7.000;2022-10-31T16:28:33;11.18;;;3.38;;
37973;SDS011;23796;51.458;7.000;2022-10-31T16:31:05;10.82;;;3.20;;
37973;SDS011;23796;51.458;7.000;2022-10-31T16:33:40;8.18;;;3.83;;
37973;SDS011;23796;51.458;7.000;2022-10-31T16:38:52;7.40;;;3.55;;
37973;SDS011;23796;51.458;7.000;2022-10-31T16:41:24;12.30;;;4.03;;
37973;SDS011;23796;51.458;7.000;2022-10-31T16:43:52;10.02;;;4.13;;
37973;SDS011;23796;51.458;7.000;2022-10-31T16:46:21;6.57;;;3.28;;
37973;SDS011;23796;51.458;7.000;2022-10-31T16:48:48;10.55;;;3.25;;
37973;SDS011;23796;51.458;7.000;2022-10-31T16:51:14;7.80;;;2.70;;
37973;SDS011;23796;51.458;7.000;2022-10-31T16:53:39;8.52;;;3.30;;
37973;SDS011;23796;51.458;7.000;2022-10-31T16:56:05;6.80;;;2.78;;
37973;SDS011;23796;51.458;7.000;2022-10-31T16:58:42;9.75;;;2.90;;
37973;SDS011;23796;51.458;7.000;2022-10-31T17:01:11;9.15;;;3.08;;
37973;SDS011;23796;51.458;7.000;2022-10-31T17:03:38;8.93;;;3.30;;
37973;SDS011;23796;51.458;7.000;2022-10-31T17:06:04;10.45;;;3.20;;
37973;SDS011;23796;51.458;7.000;2022-10-31T17:08:30;9.43;;;2.80;;
37973;SDS011;23796;51.458;7.000;2022-10-31T17:10:57;7.65;;;3.03;;
37973;SDS011;23796;51.458;7.000;2022-10-31T17:13:27;8.68;;;2.92;;
37973;SDS011;23796;51.458;7.000;2022-10-31T17:15:59;8.80;;;2.83;;
37973;SDS011;23796;51.458;7.000;2022-10-31T17:18:29;9.75;;;3.00;;
37973;SDS011;23796;51.458;7.000;2022-10-31T17:20:59;10.75;;;3.70;;
37973;SDS011;23796;51.458;7.000;2022-10-31T17:23:30;11.60;;;7.22;;
37973;SDS011;23796;51.458;7.000;2022-10-31T17:25:57;10.38;;;3.00;;
37973;SDS011;23796;51.458;7.000;2022-10-31T17:28:27;7.40;;;2.90;;
37973;SDS011;23796;51.458;7.000;2022-10-31T17:30:55;10.05;;;2.85;;
37973;SDS011;23796;51.458;7.000;2022-10-31T17:33:25;7.80;;;2.67;;
37973;SDS011;23796;51.458;7.000;2022-10-31T17:35:56;7.90;;;2.35;;
37973;SDS011;23796;51.458;7.000;2022-10-31T17:40:51;8.02;;;2.92;;
37973;SDS011;23796;51.458;7.000;2022-10-31T17:43:17;7.93;;;2.60;;
37973;SDS011;23796;51.458;7.000;2022-10-31T17:45:45;9.23;;;3.25;;
37973;SDS011;23796;51.458;7.000;2022-10-31T17:48:13;7.35;;;2.83;;
37973;SDS011;23796;51.458;7.000;2022-10-31T17:50:39;5.70;;;2.45;;
37973;SDS011;23796;51.458;7.000;2022-10-31T17:53:09;7.07;;;2.72;;
37973;SDS011;23796;51.458;7.000;2022-10-31T17:55:35;7.43;;;2.38;;
37973;SDS011;23796;51.458;7.000;2022-10-31T17:58:02;6.63;;;2.22;;